This is the latest recevied weather packets stored in our database for station/object VA3ZFM-10. If no packets are shown the sender has not sent any weather packets the latest 1 day(s).
| Time | Temp. | Humidity | Pressure | Rain* | Wind** | Luminosity | Snow |
|---|---|---|---|---|---|---|---|
| 1778010280 | 11.67° C | 48% | 1003.2 hPa | 0 mm | 1.79 m/s, 207° | - | - |
| 1778009980 | 12.22° C | 48% | 1003.1 hPa | 0 mm | 3.58 m/s, 46° | - | - |
| 1778009678 | 12.22° C | 48% | 1003.2 hPa | 0 mm | 4.92 m/s, 258° | - | - |
| 1778009376 | 12.78° C | 48% | 1003.2 hPa | 0 mm | 0.45 m/s, 34° | - | - |
| 1778009074 | 12.78° C | 49% | 1003.1 hPa | 0 mm | 0.45 m/s, 68° | - | - |
| 1778008771 | 12.78° C | 48% | 1003 hPa | 0 mm | 0.89 m/s, 190° | - | - |
| 1778008470 | 13.33° C | 49% | 1002.8 hPa | 0 mm | 0.45 m/s, 76° | - | - |
| 1778008166 | 13.33° C | 48% | 1002.7 hPa | 0 mm | 2.68 m/s, 252° | - | - |
| 1778007861 | 13.33° C | 48% | 1002.7 hPa | 0 mm | 1.34 m/s, 345° | - | - |
| 1778007557 | 13.33° C | 49% | 1002.8 hPa | 0 mm | 0.89 m/s, 108° | - | - |
| 1778007254 | 13.33° C | 47% | 1002.8 hPa | 0 mm | 0.89 m/s, 204° | - | - |
| 1778006950 | 13.33° C | 47% | 1002.7 hPa | 0 mm | 1.79 m/s, 139° | - | - |
| 1778006647 | 13.33° C | 47% | 1002.8 hPa | 0 mm | 3.13 m/s, 244° | - | - |
| 1778006344 | 12.78° C | 48% | 1002.6 hPa | 0 mm | 0.89 m/s, 80° | - | - |
| 1778006041 | 13.33° C | 49% | 1002.5 hPa | 0 mm | 1.34 m/s, 47° | - | - |
| 1778005738 | 13.89° C | 48% | 1002.3 hPa | 0 mm | 0.45 m/s, 105° | - | - |
| 1778005434 | 13.89° C | 48% | 1002.3 hPa | 0 mm | 3.13 m/s, 236° | - | - |
| 1778005131 | 13.33° C | 49% | 1001.9 hPa | 0 mm | 1.34 m/s, 139° | - | - |
| 1778004829 | 13.89° C | 50% | 1002.1 hPa | 0 mm | 0.89 m/s, 268° | - | - |
| 1778004525 | 13.33° C | 51% | 1002.2 hPa | 0 mm | 0.89 m/s, 208° | - | - |
| 1778004221 | 13.33° C | 51% | 1002.1 hPa | 0 mm | 0.45 m/s, 192° | - | - |
| 1778003918 | 13.33° C | 52% | 1002.4 hPa | 0 mm | 0.45 m/s, 212° | - | - |
| 1778003614 | 13.33° C | 54% | 1002.4 hPa | 0 mm | 0.89 m/s, 146° | - | - |
| 1778003311 | 13.33° C | 56% | 1002.4 hPa | 0 mm | 0.45 m/s, 96° | - | - |
| 1778003009 | 13.33° C | 56% | 1002.3 hPa | 0 mm | 0.45 m/s, 195° | - | - |
* Rain latest hour (hover to see other rain measurements)
** Current wind speed in m/s (hover to see current wind gust speed)